Time;durP1;ratioP1;P1;durP2;ratioP2;P2;SDS_P1;SDS_P2;PMS_P1;PMS_P2;Temp;Humidity;BMP_temperature;BMP_pressure;BME280_temperature;BME280_humidity;BME280_pressure;Samples;Min_cycle;Max_cycle;Signal;HPM_P1;HPM_P2
2021/12/16 00:35:11;;;;;;;48.97;20.60;;;;;;;;;;4994740;28;20395;-68
2021/12/16 00:37:38;;;;;;;42.80;20.08;;;;;;;;;;4994080;28;20030;-68
2021/12/16 00:40:06;;;;;;;41.30;19.58;;;;;;;;;;5009648;28;20054;-68
2021/12/16 00:42:50;;;;;;;46.13;19.73;;;;;;;;;;4995040;28;20033;-68
2021/12/16 00:48:21;;;;;;;40.50;17.95;;;;;;;;;;4994751;28;20038;-68
2021/12/16 00:56:02;;;;;;;45.00;18.52;;;;;;;;;;4995071;28;20466;-68
2021/12/16 00:58:39;;;;;;;35.92;16.88;;;;;;;;;;5009562;28;20113;-69
2021/12/16 01:33:31;;;;;;;47.45;20.55;;;;;;;;;;4947331;28;20503;-68
2021/12/16 01:34:43;;;;;;;38.65;18.42;;;;;;;;;;4936473;29;20035;-68
2021/12/16 01:47:58;;;;;;;43.35;20.30;;;;;;;;;;5009031;28;20030;-68
2021/12/16 01:50:30;;;;;;;41.95;20.10;;;;;;;;;;5008789;28;20045;-68
2021/12/16 01:55:45;;;;;;;38.17;18.92;;;;;;;;;;5008817;28;20092;-68
2021/12/16 01:58:16;;;;;;;38.15;19.10;;;;;;;;;;4992019;28;20074;-68
2021/12/16 02:00:57;;;;;;;37.55;19.70;;;;;;;;;;5008889;28;20077;-68
2021/12/16 02:03:37;;;;;;;34.93;17.53;;;;;;;;;;5008208;28;20030;-68
2021/12/16 02:06:12;;;;;;;36.40;19.63;;;;;;;;;;5008115;28;20033;-68
2021/12/16 02:08:40;;;;;;;38.97;18.38;;;;;;;;;;4991881;28;20039;-68
2021/12/16 02:38:00;;;;;;;38.92;18.63;;;;;;;;;;4991221;28;20081;-68
2021/12/16 02:40:26;;;;;;;40.00;19.83;;;;;;;;;;5007887;28;20030;-68
2021/12/16 02:43:21;;;;;;;37.92;18.23;;;;;;;;;;5007707;28;20022;-68
2021/12/16 02:48:35;;;;;;;33.65;16.38;;;;;;;;;;4991058;28;20398;-68
2021/12/16 02:51:04;;;;;;;34.85;17.33;;;;;;;;;;4991625;28;20114;-68
2021/12/16 02:53:30;;;;;;;33.03;16.48;;;;;;;;;;5007659;28;20467;-68
2021/12/16 02:55:57;;;;;;;40.80;19.00;;;;;;;;;;4991430;28;20054;-68
2021/12/16 02:58:24;;;;;;;37.22;18.05;;;;;;;;;;4992328;28;20033;-68
2021/12/16 03:01:01;;;;;;;39.45;18.10;;;;;;;;;;4992694;28;20113;-68
2021/12/16 03:03:29;;;;;;;33.17;16.88;;;;;;;;;;4992427;28;20548;-68
2021/12/16 03:05:56;;;;;;;36.60;18.73;;;;;;;;;;5005528;28;20025;-68
2021/12/16 03:08:23;;;;;;;34.75;17.95;;;;;;;;;;4991437;28;20073;-68
2021/12/16 03:13:27;;;;;;;37.80;16.95;;;;;;;;;;4991153;28;20148;-68
2021/12/16 03:16:09;;;;;;;40.47;18.85;;;;;;;;;;4994001;28;20497;-68
2021/12/16 03:21:18;;;;;;;40.22;19.02;;;;;;;;;;4995647;28;20030;-68
2021/12/16 03:35:00;;;;;;;36.95;17.27;;;;;;;;;;5011098;28;20129;-68
2021/12/16 03:37:27;;;;;;;36.53;17.02;;;;;;;;;;5011245;28;20073;-68
2021/12/16 03:39:59;;;;;;;37.03;18.30;;;;;;;;;;5011251;28;20035;-68
2021/12/16 03:42:34;;;;;;;31.50;16.75;;;;;;;;;;5010900;28;20578;-68
2021/12/16 03:46:25;;;;;;;39.75;17.60;;;;;;;;;;5011453;28;20030;-68
2021/12/16 03:47:57;;;;;;;35.15;15.75;;;;;;;;;;4993914;28;20030;-68
2021/12/16 03:50:24;;;;;;;35.63;17.10;;;;;;;;;;4994527;28;20034;-68
2021/12/16 03:52:50;;;;;;;39.00;17.85;;;;;;;;;;4995931;28;20401;-68
2021/12/16 03:55:19;;;;;;;35.22;17.40;;;;;;;;;;5010905;28;20085;-68
2021/12/16 03:57:46;;;;;;;36.60;17.52;;;;;;;;;;5011202;28;20058;-68
2021/12/16 04:00:22;;;;;;;33.35;15.98;;;;;;;;;;5010535;28;20014;-68
2021/12/16 04:02:53;;;;;;;33.58;16.20;;;;;;;;;;5010528;28;20022;-68
2021/12/16 04:05:26;;;;;;;31.75;16.08;;;;;;;;;;5010641;28;20034;-68
2021/12/16 04:07:53;;;;;;;35.75;16.42;;;;;;;;;;5010652;28;20521;-68
2021/12/16 04:10:32;;;;;;;36.10;18.17;;;;;;;;;;4993990;28;20490;-68
2021/12/16 04:13:00;;;;;;;37.47;17.67;;;;;;;;;;5010989;28;20398;-68
2021/12/16 04:15:27;;;;;;;37.22;17.55;;;;;;;;;;4995426;28;20073;-68
2021/12/16 04:17:54;;;;;;;39.33;18.80;;;;;;;;;;4993821;28;20038;-68
2021/12/16 04:20:21;;;;;;;38.20;18.85;;;;;;;;;;4995505;28;20030;-68
2021/12/16 04:22:47;;;;;;;36.60;16.80;;;;;;;;;;4995196;28;20102;-68
2021/12/16 04:25:23;;;;;;;38.22;17.67;;;;;;;;;;4994390;28;20100;-68
2021/12/16 04:27:53;;;;;;;36.38;17.13;;;;;;;;;;5007571;28;20034;-68
2021/12/16 04:30:20;;;;;;;38.72;17.35;;;;;;;;;;4992551;28;20030;-67
2021/12/16 04:32:47;;;;;;;42.22;18.40;;;;;;;;;;5012184;28;20042;-67
2021/12/16 04:35:15;;;;;;;37.58;17.80;;;;;;;;;;4993760;28;20509;-67
2021/12/16 04:37:45;;;;;;;30.80;16.40;;;;;;;;;;5009808;28;20033;-67
2021/12/16 04:40:13;;;;;;;34.47;16.88;;;;;;;;;;4994457;28;20054;-67
2021/12/16 04:42:44;;;;;;;40.30;17.73;;;;;;;;;;4993526;28;20034;-68
2021/12/16 04:45:12;;;;;;;38.40;19.20;;;;;;;;;;5010001;28;20397;-68
2021/12/16 04:47:39;;;;;;;39.05;17.58;;;;;;;;;;4978104;28;20030;-68
2021/12/16 04:50:07;;;;;;;37.38;18.40;;;;;;;;;;5010881;28;20030;-68
2021/12/16 04:52:33;;;;;;;36.80;18.23;;;;;;;;;;4994520;28;20474;-68
2021/12/16 04:55:00;;;;;;;35.88;18.48;;;;;;;;;;4994080;28;20038;-68
2021/12/16 04:57:26;;;;;;;35.55;16.95;;;;;;;;;;5010485;28;20026;-68
2021/12/16 04:59:52;;;;;;;37.15;17.27;;;;;;;;;;5009749;28;20022;-68
2021/12/16 05:02:21;;;;;;;38.75;18.52;;;;;;;;;;4993485;28;20031;-68
2021/12/16 05:05:03;;;;;;;40.47;18.20;;;;;;;;;;4994123;28;20042;-68
2021/12/16 05:07:30;;;;;;;38.72;18.60;;;;;;;;;;4977627;28;20049;-68
2021/12/16 05:10:16;;;;;;;34.80;16.45;;;;;;;;;;4995717;28;20041;-67
2021/12/16 05:12:50;;;;;;;36.47;17.48;;;;;;;;;;4993495;28;20042;-68
2021/12/16 05:15:19;;;;;;;39.88;18.75;;;;;;;;;;4991643;28;20030;-67
2021/12/16 05:17:50;;;;;;;43.47;19.70;;;;;;;;;;4993679;28;20019;-67
2021/12/16 05:20:20;;;;;;;42.58;18.77;;;;;;;;;;4994702;28;20023;-67
2021/12/16 05:28:01;;;;;;;40.78;18.25;;;;;;;;;;4992269;28;20053;-67
2021/12/16 05:30:28;;;;;;;43.42;18.00;;;;;;;;;;5009301;28;20026;-67
2021/12/16 05:32:54;;;;;;;39.13;18.33;;;;;;;;;;5009104;28;20041;-67
2021/12/16 05:35:22;;;;;;;40.95;18.55;;;;;;;;;;4992758;28;20418;-67
2021/12/16 05:37:49;;;;;;;39.30;17.30;;;;;;;;;;5008927;28;20379;-67
2021/12/16 05:40:18;;;;;;;44.72;19.20;;;;;;;;;;4992611;28;20031;-67
2021/12/16 05:43:15;;;;;;;40.95;19.38;;;;;;;;;;4992927;28;20034;-67
2021/12/16 05:45:42;;;;;;;49.42;20.40;;;;;;;;;;4993778;28;20030;-67
2021/12/16 05:48:10;;;;;;;46.13;20.30;;;;;;;;;;5009155;28;20026;-67
2021/12/16 05:50:41;;;;;;;45.38;21.08;;;;;;;;;;5008049;28;20121;-67
2021/12/16 05:53:07;;;;;;;45.70;18.77;;;;;;;;;;4989051;28;20030;-67
2021/12/16 05:55:34;;;;;;;48.05;20.65;;;;;;;;;;4990580;28;20069;-67
2021/12/16 05:58:09;;;;;;;42.13;18.10;;;;;;;;;;5007078;28;20030;-67
2021/12/16 06:00:39;;;;;;;41.83;16.88;;;;;;;;;;4988873;28;20050;-67
2021/12/16 06:03:05;;;;;;;44.80;17.58;;;;;;;;;;4990240;28;20409;-67
2021/12/16 06:05:32;;;;;;;43.72;16.25;;;;;;;;;;5012611;28;20019;-67
2021/12/16 06:07:58;;;;;;;44.05;16.50;;;;;;;;;;4990073;28;20497;-67
2021/12/16 06:13:11;;;;;;;52.53;17.00;;;;;;;;;;4991282;28;20050;-67
2021/12/16 06:29:10;;;;;;;45.80;17.50;;;;;;;;;;4991066;28;20034;-67
2021/12/16 06:31:36;;;;;;;37.47;16.90;;;;;;;;;;4990228;28;20084;-67
2021/12/16 06:34:02;;;;;;;50.25;18.35;;;;;;;;;;4990155;28;20026;-67
2021/12/16 06:36:28;;;;;;;49.00;19.77;;;;;;;;;;4990133;28;20054;-67
2021/12/16 06:38:55;;;;;;;50.65;18.77;;;;;;;;;;4989689;28;20402;-67
2021/12/16 06:41:35;;;;;;;57.03;21.42;;;;;;;;;;4990863;28;20049;-67
2021/12/16 06:44:27;;;;;;;44.05;18.40;;;;;;;;;;5007155;28;20034;-67
2021/12/16 06:46:59;;;;;;;49.65;17.60;;;;;;;;;;4989991;28;20034;-67
2021/12/16 06:49:27;;;;;;;65.03;16.43;;;;;;;;;;4992117;28;20034;-66
2021/12/16 06:52:14;;;;;;;56.22;17.17;;;;;;;;;;4991680;28;20725;-66
2021/12/16 06:55:09;;;;;;;47.65;16.83;;;;;;;;;;4992756;28;20048;-66
2021/12/16 07:00:09;;;;;;;49.92;17.17;;;;;;;;;;4997626;28;20038;-68
2021/12/16 07:02:52;;;;;;;41.53;17.05;;;;;;;;;;4989930;28;20026;-67
2021/12/16 07:05:20;;;;;;;45.67;16.77;;;;;;;;;;4980802;28;20031;-67
2021/12/16 07:07:47;;;;;;;43.65;16.73;;;;;;;;;;4992511;28;20037;-67
2021/12/16 07:10:14;;;;;;;33.95;14.15;;;;;;;;;;4992449;28;20022;-67
2021/12/16 07:12:46;;;;;;;39.50;15.25;;;;;;;;;;4992779;28;20030;-67
2021/12/16 07:15:13;;;;;;;;;;;;;;;;;;4993024;28;20506;-68
2021/12/16 07:17:40;;;;;;;55.15;19.98;;;;;;;;;;4992709;28;19910;-68
2021/12/16 07:20:08;;;;;;;51.42;17.80;;;;;;;;;;4991318;28;20327;-67
2021/12/16 07:22:34;;;;;;;54.85;18.98;;;;;;;;;;4989614;28;20033;-66
2021/12/16 07:25:02;;;;;;;53.55;20.48;;;;;;;;;;4998134;28;20068;-66
2021/12/16 07:27:29;;;;;;;55.63;19.83;;;;;;;;;;4992162;28;20104;-67
2021/12/16 07:29:55;;;;;;;43.85;17.08;;;;;;;;;;4993937;28;20093;-67
2021/12/16 07:32:21;;;;;;;39.92;15.90;;;;;;;;;;4998268;28;20440;-67
2021/12/16 07:34:48;;;;;;;34.28;14.35;;;;;;;;;;4991619;28;20047;-67
2021/12/16 07:37:14;;;;;;;35.03;14.48;;;;;;;;;;4992352;28;20750;-67
2021/12/16 07:39:42;;;;;;;45.20;18.88;;;;;;;;;;5007489;28;20034;-67
2021/12/16 07:42:11;;;;;;;51.95;20.50;;;;;;;;;;5011696;28;20109;-67
2021/12/16 07:44:38;;;;;;;51.90;20.63;;;;;;;;;;5011870;28;20037;-67
2021/12/16 07:47:08;;;;;;;68.20;22.38;;;;;;;;;;5012005;28;20058;-67
2021/12/16 07:49:40;;;;;;;57.88;18.80;;;;;;;;;;5012052;28;20285;-67
2021/12/16 07:52:06;;;;;;;52.72;17.45;;;;;;;;;;5011852;28;20372;-67
2021/12/16 07:54:32;;;;;;;48.45;17.65;;;;;;;;;;5011663;28;20026;-67
2021/12/16 07:57:00;;;;;;;40.13;15.52;;;;;;;;;;5011882;28;20089;-67
2021/12/16 07:59:27;;;;;;;36.85;14.88;;;;;;;;;;5012053;28;20080;-67
2021/12/16 08:01:54;;;;;;;50.67;18.23;;;;;;;;;;5012883;28;20041;-66
2021/12/16 08:04:22;;;;;;;55.45;18.17;;;;;;;;;;5015543;28;20025;-67
2021/12/16 08:06:50;;;;;;;54.10;17.52;;;;;;;;;;5015472;28;20555;-67
2021/12/16 08:09:17;;;;;;;60.00;19.13;;;;;;;;;;5014992;28;20361;-67
2021/12/16 08:11:44;;;;;;;46.72;18.48;;;;;;;;;;5015416;28;20022;-67
2021/12/16 08:14:10;;;;;;;43.95;18.17;;;;;;;;;;5015136;28;20036;-67
2021/12/16 08:16:37;;;;;;;44.03;17.35;;;;;;;;;;5015466;28;20553;-67
2021/12/16 08:19:04;;;;;;;54.70;18.10;;;;;;;;;;5015120;28;20390;-67
2021/12/16 08:21:30;;;;;;;43.13;16.95;;;;;;;;;;5015161;28;20026;-67
2021/12/16 08:23:58;;;;;;;46.85;17.58;;;;;;;;;;5014793;28;20022;-67
2021/12/16 08:26:25;;;;;;;43.13;17.02;;;;;;;;;;5015343;28;20034;-67
2021/12/16 08:28:51;;;;;;;43.28;17.02;;;;;;;;;;5010630;28;20493;-67
2021/12/16 08:31:17;;;;;;;45.67;16.17;;;;;;;;;;4995334;28;20031;-67
2021/12/16 08:33:43;;;;;;;35.80;14.40;;;;;;;;;;4995237;28;20570;-67
2021/12/16 08:36:10;;;;;;;39.03;15.63;;;;;;;;;;4994969;28;20125;-67
2021/12/16 08:38:36;;;;;;;36.15;14.05;;;;;;;;;;4995176;28;20034;-67
2021/12/16 08:41:15;;;;;;;34.22;13.60;;;;;;;;;;4995264;28;20116;-67
2021/12/16 08:43:44;;;;;;;42.90;16.15;;;;;;;;;;4995440;28;20034;-67
2021/12/16 08:46:12;;;;;;;40.40;14.93;;;;;;;;;;4994877;28;20026;-67
2021/12/16 08:48:39;;;;;;;34.17;14.73;;;;;;;;;;4995280;28;20077;-67
2021/12/16 08:51:06;;;;;;;40.97;15.07;;;;;;;;;;4994879;28;20034;-67
2021/12/16 08:53:32;;;;;;;35.33;14.02;;;;;;;;;;4995245;28;20030;-67
2021/12/16 08:55:58;;;;;;;45.90;18.25;;;;;;;;;;4994914;28;20425;-67
2021/12/16 08:58:25;;;;;;;40.13;16.67;;;;;;;;;;4995074;28;20117;-67
2021/12/16 09:00:53;;;;;;;41.17;16.23;;;;;;;;;;4994893;28;20072;-67
2021/12/16 09:03:20;;;;;;;42.95;17.48;;;;;;;;;;4994701;28;20026;-67
2021/12/16 09:05:46;;;;;;;38.85;17.17;;;;;;;;;;4994600;28;20018;-67
2021/12/16 09:08:12;;;;;;;38.22;16.95;;;;;;;;;;4994686;28;20031;-67
2021/12/16 09:10:39;;;;;;;36.28;15.55;;;;;;;;;;4994721;28;20065;-67
2021/12/16 09:13:09;;;;;;;40.90;16.20;;;;;;;;;;4993957;28;20034;-67
2021/12/16 09:15:56;;;;;;;28.10;13.63;;;;;;;;;;4994787;28;20406;-67
2021/12/16 09:18:24;;;;;;;26.13;11.73;;;;;;;;;;4994627;28;20402;-67
2021/12/16 09:20:52;;;;;;;27.17;13.57;;;;;;;;;;4994361;28;20023;-67
2021/12/16 09:23:18;;;;;;;25.23;11.20;;;;;;;;;;4994288;28;20030;-67
2021/12/16 09:25:46;;;;;;;24.08;10.85;;;;;;;;;;4994580;28;20482;-68
2021/12/16 09:28:13;;;;;;;27.70;10.15;;;;;;;;;;4994111;28;20033;-67
2021/12/16 09:30:39;;;;;;;19.85;10.57;;;;;;;;;;4994412;28;20033;-68
2021/12/16 09:33:12;;;;;;;20.88;9.65;;;;;;;;;;4994204;28;20077;-69
2021/12/16 09:35:39;;;;;;;22.10;9.70;;;;;;;;;;4993942;28;20130;-67
2021/12/16 09:38:06;;;;;;;20.77;10.52;;;;;;;;;;4993972;28;20031;-67
2021/12/16 09:40:39;;;;;;;20.23;10.77;;;;;;;;;;4994216;28;20046;-67
2021/12/16 09:43:05;;;;;;;19.30;9.65;;;;;;;;;;4994120;28;20031;-67
2021/12/16 09:45:31;;;;;;;19.50;10.05;;;;;;;;;;4994029;28;20030;-67
2021/12/16 09:47:58;;;;;;;20.63;10.43;;;;;;;;;;4994021;28;20033;-67
2021/12/16 09:50:27;;;;;;;19.67;10.52;;;;;;;;;;4993518;28;20034;-67
2021/12/16 09:52:54;;;;;;;17.92;9.15;;;;;;;;;;4994081;28;20026;-67
2021/12/16 09:55:20;;;;;;;22.20;9.20;;;;;;;;;;4992413;28;20121;-67
2021/12/16 09:57:47;;;;;;;19.30;10.30;;;;;;;;;;4993876;28;20557;-67
2021/12/16 10:00:15;;;;;;;18.85;10.20;;;;;;;;;;4993781;28;20026;-67
2021/12/16 10:02:41;;;;;;;19.92;9.98;;;;;;;;;;4993750;28;20026;-67
2021/12/16 10:05:09;;;;;;;19.98;10.05;;;;;;;;;;4993478;28;20030;-67
2021/12/16 10:07:35;;;;;;;19.30;11.18;;;;;;;;;;4993639;28;20034;-67
2021/12/16 10:10:07;;;;;;;17.88;9.73;;;;;;;;;;4993540;28;20153;-67
2021/12/16 10:12:38;;;;;;;20.80;10.38;;;;;;;;;;4993560;28;20495;-67
2021/12/16 10:17:21;;;;;;;22.15;10.25;;;;;;;;;;4993381;28;20039;-67
2021/12/16 10:17:51;;;;;;;18.63;10.40;;;;;;;;;;4993460;28;20037;-67
2021/12/16 10:20:21;;;;;;;21.25;9.88;;;;;;;;;;4993030;28;20070;-67
2021/12/16 10:22:50;;;;;;;25.15;11.60;;;;;;;;;;4993448;28;20038;-67
2021/12/16 10:25:22;;;;;;;25.10;12.60;;;;;;;;;;4993131;28;20027;-67
2021/12/16 10:27:57;;;;;;;22.08;11.18;;;;;;;;;;4993521;28;20497;-67
2021/12/16 10:30:25;;;;;;;30.52;12.75;;;;;;;;;;4993011;28;20030;-67
2021/12/16 10:32:53;;;;;;;27.13;13.00;;;;;;;;;;4993003;28;20026;-67
2021/12/16 10:35:19;;;;;;;26.30;11.82;;;;;;;;;;4992580;28;20055;-67
2021/12/16 10:37:57;;;;;;;26.35;12.00;;;;;;;;;;4993376;28;20483;-67
2021/12/16 10:40:35;;;;;;;38.75;15.30;;;;;;;;;;4993015;28;20390;-67
2021/12/16 10:43:05;;;;;;;26.75;11.80;;;;;;;;;;4993269;28;20034;-67
2021/12/16 10:45:33;;;;;;;27.63;12.60;;;;;;;;;;4992999;28;20045;-67
2021/12/16 10:48:21;;;;;;;24.08;11.88;;;;;;;;;;4992958;28;20030;-67
2021/12/16 10:50:50;;;;;;;25.65;12.30;;;;;;;;;;4992987;28;20034;-67
2021/12/16 10:53:17;;;;;;;26.67;13.30;;;;;;;;;;4992685;28;20372;-67
2021/12/16 10:55:57;;;;;;;27.45;12.68;;;;;;;;;;4993230;28;20033;-67
2021/12/16 10:58:43;;;;;;;33.20;14.15;;;;;;;;;;4992783;28;20033;-67
2021/12/16 11:01:30;;;;;;;25.30;12.50;;;;;;;;;;4992669;28;20032;-67
2021/12/16 11:03:56;;;;;;;37.15;16.00;;;;;;;;;;4992899;28;20035;-67
2021/12/16 11:06:30;;;;;;;32.85;15.18;;;;;;;;;;4992671;28;20034;-67
2021/12/16 11:09:16;;;;;;;25.92;12.15;;;;;;;;;;5008029;28;20030;-67
2021/12/16 11:11:42;;;;;;;27.65;12.38;;;;;;;;;;4992665;28;20482;-67
2021/12/16 11:14:09;;;;;;;34.47;15.30;;;;;;;;;;4992643;28;20034;-67
2021/12/16 11:16:36;;;;;;;30.60;13.55;;;;;;;;;;4992422;28;20027;-67
2021/12/16 11:19:04;;;;;;;32.10;14.82;;;;;;;;;;4992862;28;20031;-67
2021/12/16 11:21:41;;;;;;;31.67;13.23;;;;;;;;;;4992413;28;20034;-67
2021/12/16 11:24:23;;;;;;;34.30;14.25;;;;;;;;;;4992647;28;20081;-67
2021/12/16 11:26:49;;;;;;;36.35;15.82;;;;;;;;;;4992658;28;20380;-67
2021/12/16 11:29:17;;;;;;;41.28;19.15;;;;;;;;;;4992395;28;20049;-67
2021/12/16 11:31:44;;;;;;;36.45;16.25;;;;;;;;;;4992517;28;20057;-67
2021/12/16 11:34:10;;;;;;;38.55;15.45;;;;;;;;;;4992170;28;20074;-67
2021/12/16 11:36:44;;;;;;;44.40;18.52;;;;;;;;;;4993226;28;20061;-67
2021/12/16 11:39:12;;;;;;;34.38;16.17;;;;;;;;;;4996356;28;20490;-67
2021/12/16 11:41:41;;;;;;;37.17;16.92;;;;;;;;;;4996451;28;20053;-67
2021/12/16 11:44:21;;;;;;;44.55;17.60;;;;;;;;;;4996298;28;20023;-67
2021/12/16 11:46:50;;;;;;;47.08;19.85;;;;;;;;;;4995966;28;20026;-67
2021/12/16 11:49:22;;;;;;;45.90;19.50;;;;;;;;;;4994874;28;20398;-67
2021/12/16 11:52:08;;;;;;;40.97;16.15;;;;;;;;;;4999013;28;20046;-66
2021/12/16 11:54:43;;;;;;;38.60;16.48;;;;;;;;;;4993831;28;20475;-66
2021/12/16 11:57:24;;;;;;;40.03;15.88;;;;;;;;;;4992044;28;20077;-66
2021/12/16 11:59:55;;;;;;;35.13;15.90;;;;;;;;;;4994650;28;20038;-66
2021/12/16 12:02:33;;;;;;;42.45;16.48;;;;;;;;;;4994942;28;20045;-66
2021/12/16 12:05:15;;;;;;;40.75;16.63;;;;;;;;;;4993610;28;20371;-67
2021/12/16 12:07:42;;;;;;;35.28;15.43;;;;;;;;;;4993412;28;20103;-66
2021/12/16 12:10:08;;;;;;;34.72;15.50;;;;;;;;;;4994125;28;20097;-66
2021/12/16 12:12:42;;;;;;;34.67;15.77;;;;;;;;;;4994240;28;20109;-66
2021/12/16 12:15:09;;;;;;;38.35;14.70;;;;;;;;;;4994797;28;20022;-66
2021/12/16 12:17:50;;;;;;;37.33;17.08;;;;;;;;;;4996596;28;20026;-66
2021/12/16 12:20:17;;;;;;;38.92;16.23;;;;;;;;;;5000455;28;20405;-66
2021/12/16 12:22:43;;;;;;;40.55;17.13;;;;;;;;;;4997136;28;20441;-66
2021/12/16 12:25:09;;;;;;;39.47;16.75;;;;;;;;;;5002605;28;20065;-66
2021/12/16 12:27:35;;;;;;;34.28;16.80;;;;;;;;;;5005527;28;20046;-66
2021/12/16 12:30:05;;;;;;;32.78;15.20;;;;;;;;;;5008784;28;20466;-66
2021/12/16 12:32:34;;;;;;;43.92;18.30;;;;;;;;;;5009377;28;20077;-66
2021/12/16 12:35:03;;;;;;;42.03;18.83;;;;;;;;;;5000579;28;20054;-66
2021/12/16 12:37:31;;;;;;;42.05;18.20;;;;;;;;;;4993989;28;20453;-66
2021/12/16 12:40:06;;;;;;;44.10;19.20;;;;;;;;;;4993849;28;20097;-66
2021/12/16 12:42:33;;;;;;;39.65;18.17;;;;;;;;;;4992645;28;20556;-66
2021/12/16 12:44:59;;;;;;;40.55;18.52;;;;;;;;;;4995764;28;20034;-66
2021/12/16 12:47:32;;;;;;;42.47;18.80;;;;;;;;;;4995465;28;20053;-67
2021/12/16 12:50:08;;;;;;;41.92;18.98;;;;;;;;;;5009465;28;20410;-67
2021/12/16 12:52:35;;;;;;;39.97;19.27;;;;;;;;;;4994924;28;20034;-67
2021/12/16 12:55:05;;;;;;;39.03;18.92;;;;;;;;;;4995202;28;20022;-67
2021/12/16 12:57:33;;;;;;;40.45;20.10;;;;;;;;;;4994610;28;20113;-66
2021/12/16 12:59:59;;;;;;;40.80;20.23;;;;;;;;;;4994964;28;20026;-66
2021/12/16 13:02:44;;;;;;;41.83;18.40;;;;;;;;;;4994845;28;20383;-66
2021/12/16 13:05:13;;;;;;;44.03;19.30;;;;;;;;;;4994876;28;20276;-66
2021/12/16 13:07:40;;;;;;;37.13;18.38;;;;;;;;;;4994713;28;20026;-66
2021/12/16 13:10:17;;;;;;;36.03;18.45;;;;;;;;;;4994775;28;20030;-66
2021/12/16 13:13:00;;;;;;;45.97;19.83;;;;;;;;;;4994175;28;20118;-66
2021/12/16 13:23:57;;;;;;;40.83;19.77;;;;;;;;;;4994342;28;20038;-66
2021/12/16 13:29:08;;;;;;;46.30;21.90;;;;;;;;;;4994283;28;20065;-66
2021/12/16 13:31:44;;;;;;;47.90;21.63;;;;;;;;;;4994297;28;20057;-66
2021/12/16 13:34:28;;;;;;;49.42;23.02;;;;;;;;;;4993979;28;20067;-66
2021/12/16 13:36:57;;;;;;;44.60;23.42;;;;;;;;;;4994386;28;20042;-66
2021/12/16 13:39:25;;;;;;;50.45;24.92;;;;;;;;;;4994465;28;20483;-66
2021/12/16 13:42:03;;;;;;;53.13;26.48;;;;;;;;;;4993843;28;20030;-66
2021/12/16 13:44:39;;;;;;;49.72;23.48;;;;;;;;;;4994227;28;20387;-66
2021/12/16 14:00:03;;;;;;;41.85;19.90;;;;;;;;;;4993695;28;20104;-66
2021/12/16 14:10:04;;;;;;;36.30;17.88;;;;;;;;;;4972074;28;20486;-67
2021/12/16 14:15:18;;;;;;;37.45;17.65;;;;;;;;;;4971894;28;20122;-67
2021/12/16 14:18:08;;;;;;;31.70;16.00;;;;;;;;;;4971979;28;20034;-68
2021/12/16 14:23:37;;;;;;;31.88;15.05;;;;;;;;;;4953029;28;20110;-67
2021/12/16 14:26:40;;;;;;;25.92;13.57;;;;;;;;;;4952845;29;20035;-68
2021/12/16 14:42:25;;;;;;;25.35;13.50;;;;;;;;;;4988875;28;20049;-67
2021/12/16 14:50:32;;;;;;;20.52;12.20;;;;;;;;;;4989474;28;20034;-67
2021/12/16 14:52:59;;;;;;;22.80;12.23;;;;;;;;;;4979690;28;20089;-67
2021/12/16 14:55:25;;;;;;;20.52;10.93;;;;;;;;;;4992517;28;20035;-67
2021/12/16 14:57:53;;;;;;;20.67;11.55;;;;;;;;;;4992871;28;20038;-67
2021/12/16 15:00:29;;;;;;;24.70;12.02;;;;;;;;;;4993188;28;20080;-67
2021/12/16 15:03:12;;;;;;;18.63;10.20;;;;;;;;;;4992839;28;20030;-67
2021/12/16 15:05:45;;;;;;;17.52;9.75;;;;;;;;;;4991567;28;20033;-67
2021/12/16 15:08:22;;;;;;;21.75;10.80;;;;;;;;;;4992657;28;20026;-67
2021/12/16 15:10:49;;;;;;;18.40;10.05;;;;;;;;;;4992524;28;20034;-67
2021/12/16 15:13:26;;;;;;;18.85;10.35;;;;;;;;;;4992664;28;20092;-67
2021/12/16 15:16:44;;;;;;;21.13;10.50;;;;;;;;;;4992393;28;20038;-68
2021/12/16 15:43:36;;;;;;;16.75;9.95;;;;;;;;;;4992617;28;20097;-67
2021/12/16 15:46:05;;;;;;;17.08;9.85;;;;;;;;;;4992260;28;20026;-67
2021/12/16 15:48:32;;;;;;;15.55;9.68;;;;;;;;;;4992352;28;20038;-67
2021/12/16 15:51:07;;;;;;;21.10;9.48;;;;;;;;;;4988128;28;20395;-66
2021/12/16 15:53:33;;;;;;;16.13;9.55;;;;;;;;;;4991637;28;20065;-66
2021/12/16 15:56:07;;;;;;;19.40;11.27;;;;;;;;;;4991490;28;20048;-66
2021/12/16 15:58:44;;;;;;;17.17;10.32;;;;;;;;;;4987974;28;20038;-66
2021/12/16 16:01:12;;;;;;;21.13;10.88;;;;;;;;;;4992322;28;20062;-66
2021/12/16 16:03:38;;;;;;;15.23;9.13;;;;;;;;;;4992050;28;20022;-66
2021/12/16 16:06:06;;;;;;;16.95;9.80;;;;;;;;;;4995022;28;20026;-66
2021/12/16 16:08:35;;;;;;;21.52;10.45;;;;;;;;;;4993327;28;20038;-66
2021/12/16 16:11:03;;;;;;;14.43;8.65;;;;;;;;;;4998201;28;20026;-66
2021/12/16 16:13:31;;;;;;;20.75;9.75;;;;;;;;;;4998991;28;20038;-66
2021/12/16 16:16:01;;;;;;;16.98;9.85;;;;;;;;;;4993994;28;20030;-66
2021/12/16 16:20:58;;;;;;;13.07;8.43;;;;;;;;;;4991084;28;20509;-66
2021/12/16 16:23:25;;;;;;;16.88;9.93;;;;;;;;;;4993535;28;20026;-66
2021/12/16 16:25:52;;;;;;;16.70;10.15;;;;;;;;;;4993964;28;20034;-66
2021/12/16 16:28:20;;;;;;;16.30;9.63;;;;;;;;;;4994755;28;20031;-66
2021/12/16 16:30:47;;;;;;;15.02;9.48;;;;;;;;;;4995184;28;20066;-66
2021/12/16 16:33:16;;;;;;;16.20;9.57;;;;;;;;;;4994819;28;20018;-66
2021/12/16 16:35:44;;;;;;;16.55;9.48;;;;;;;;;;4994381;28;20129;-66
2021/12/16 16:38:16;;;;;;;16.73;9.02;;;;;;;;;;4994252;28;20035;-66
2021/12/16 16:40:45;;;;;;;16.40;8.75;;;;;;;;;;4994816;28;20034;-66
2021/12/16 16:43:17;;;;;;;15.55;8.43;;;;;;;;;;4994287;28;20458;-66
2021/12/16 16:45:44;;;;;;;12.70;8.60;;;;;;;;;;4994716;28;20422;-66
2021/12/16 16:48:27;;;;;;;17.65;9.07;;;;;;;;;;4994818;28;20022;-66
2021/12/16 16:51:07;;;;;;;16.13;8.52;;;;;;;;;;4992565;28;20045;-66
2021/12/16 16:53:42;;;;;;;16.50;9.43;;;;;;;;;;4995020;28;20033;-66
2021/12/16 16:56:09;;;;;;;15.50;9.13;;;;;;;;;;4994402;28;20037;-66
2021/12/16 16:58:35;;;;;;;16.63;9.20;;;;;;;;;;4994219;28;20093;-66
2021/12/16 17:01:01;;;;;;;18.52;9.65;;;;;;;;;;4994585;28;20479;-66
2021/12/16 17:03:28;;;;;;;15.85;8.32;;;;;;;;;;4994842;28;20031;-66
2021/12/16 17:06:03;;;;;;;15.23;9.00;;;;;;;;;;4993704;28;20027;-66
2021/12/16 17:08:35;;;;;;;17.50;9.13;;;;;;;;;;5009903;28;20422;-66
2021/12/16 17:11:04;;;;;;;14.93;8.40;;;;;;;;;;4994291;28;20030;-66
2021/12/16 17:13:41;;;;;;;20.48;9.80;;;;;;;;;;4994693;28;20416;-66
2021/12/16 17:18:38;;;;;;;13.68;8.88;;;;;;;;;;4993296;28;20027;-66
2021/12/16 17:21:21;;;;;;;14.80;8.70;;;;;;;;;;4994553;28;20057;-66
2021/12/16 17:23:50;;;;;;;15.68;8.85;;;;;;;;;;4993929;28;20096;-66
2021/12/16 17:26:21;;;;;;;16.75;9.88;;;;;;;;;;4993008;28;20023;-66
2021/12/16 17:28:52;;;;;;;17.52;9.85;;;;;;;;;;4993431;28;20446;-66
2021/12/16 17:31:29;;;;;;;19.98;9.18;;;;;;;;;;4993389;28;20022;-66
2021/12/16 17:34:16;;;;;;;17.17;8.95;;;;;;;;;;4993032;28;20034;-66
2021/12/16 17:36:43;;;;;;;19.60;9.30;;;;;;;;;;4993771;28;20102;-66
2021/12/16 17:39:11;;;;;;;12.98;8.60;;;;;;;;;;4993527;28;20026;-66
2021/12/16 17:41:39;;;;;;;13.80;8.13;;;;;;;;;;4993909;28;20097;-66
2021/12/16 17:44:15;;;;;;;17.70;9.30;;;;;;;;;;4993377;28;20080;-66
2021/12/16 17:46:43;;;;;;;14.38;8.80;;;;;;;;;;4993685;28;20089;-66
2021/12/16 17:49:09;;;;;;;14.82;8.82;;;;;;;;;;4992882;28;20034;-66
2021/12/16 17:51:39;;;;;;;17.48;8.85;;;;;;;;;;4994281;28;20054;-66
2021/12/16 17:54:07;;;;;;;14.07;8.48;;;;;;;;;;4992839;28;20035;-66
2021/12/16 17:56:34;;;;;;;16.38;8.70;;;;;;;;;;4994078;28;20038;-67
2021/12/16 17:59:01;;;;;;;12.90;8.10;;;;;;;;;;4996262;28;20025;-67
2021/12/16 18:01:29;;;;;;;18.35;9.70;;;;;;;;;;4990390;28;20034;-67
2021/12/16 18:03:59;;;;;;;20.40;10.68;;;;;;;;;;4992033;28;20034;-67
2021/12/16 18:06:27;;;;;;;17.02;10.00;;;;;;;;;;4990865;28;20077;-67
2021/12/16 18:08:58;;;;;;;15.35;9.10;;;;;;;;;;4991119;28;20449;-67
2021/12/16 18:11:29;;;;;;;15.23;8.57;;;;;;;;;;4992175;28;20100;-67
2021/12/16 18:14:08;;;;;;;13.13;9.25;;;;;;;;;;4990528;28;20027;-66
2021/12/16 18:16:37;;;;;;;12.90;7.97;;;;;;;;;;4991865;28;20113;-66
2021/12/16 18:19:12;;;;;;;14.68;8.25;;;;;;;;;;4993065;28;20026;-66
2021/12/16 18:21:39;;;;;;;15.25;8.07;;;;;;;;;;4988975;28;20065;-66
2021/12/16 18:24:06;;;;;;;14.43;7.60;;;;;;;;;;4991245;28;20034;-66
2021/12/16 18:26:33;;;;;;;13.90;7.00;;;;;;;;;;4991385;28;20069;-66
2021/12/16 18:28:59;;;;;;;14.13;7.95;;;;;;;;;;4990645;28;20022;-66
2021/12/16 18:31:30;;;;;;;15.35;7.63;;;;;;;;;;4999373;28;20029;-66
2021/12/16 18:33:58;;;;;;;13.13;7.55;;;;;;;;;;4992135;28;20031;-66
2021/12/16 18:36:32;;;;;;;12.95;6.82;;;;;;;;;;4990995;28;20045;-66
2021/12/16 18:39:05;;;;;;;11.50;7.55;;;;;;;;;;4991267;28;20026;-66
2021/12/16 18:41:34;;;;;;;12.77;7.90;;;;;;;;;;4991621;28;20074;-66
2021/12/16 18:44:00;;;;;;;12.93;7.85;;;;;;;;;;4991363;28;20085;-66